Time;durP1;ratioP1;P1;durP2;ratioP2;P2;SDS_P1;SDS_P2;PMS_P1;PMS_P2;Temp;Humidity;BMP_temperature;BMP_pressure;BME280_temperature;BME280_humidity;BME280_pressure;Samples;Min_cycle;Max_cycle;Signal;HPM_P1;HPM_P2
2022/04/10 00:02:17;;;;;;;;;;;6.40;97.30;;;;;;6127717;23;19921;-88
2022/04/10 00:04:45;;;;;;;;;;;6.40;97.20;;;;;;6130618;23;20253;-86
2022/04/10 00:07:13;;;;;;;;;;;6.30;97.10;;;;;;6130241;23;19921;-88
2022/04/10 00:09:41;;;;;;;;;;;6.20;97.80;;;;;;6080942;23;19921;-84
2022/04/10 00:12:08;;;;;;;;;;;6.20;97.40;;;;;;6125395;23;19952;-85
2022/04/10 00:14:36;;;;;;;;;;;6.10;97.30;;;;;;6100968;23;19937;-86
2022/04/10 00:17:04;;;;;;;;;;;6.00;97.50;;;;;;6127964;23;20285;-87
2022/04/10 00:19:33;;;;;;;;;;;6.00;98.20;;;;;;6104380;23;19927;-88
2022/04/10 00:22:00;;;;;;;;;;;5.90;97.60;;;;;;6102654;23;19921;-86
2022/04/10 00:24:29;;;;;;;;;;;5.50;97.60;;;;;;6125917;23;20356;-87
2022/04/10 00:26:56;;;;;;;;;;;5.90;97.70;;;;;;6102150;23;19944;-85
2022/04/10 00:29:24;;;;;;;;;;;5.80;97.90;;;;;;6127912;23;20254;-86
2022/04/10 00:31:53;;;;;;;;;;;5.80;99.00;;;;;;6100584;23;20258;-85
2022/04/10 00:34:21;;;;;;;;;;;5.70;99.10;;;;;;6123972;23;19925;-85
2022/04/10 00:36:49;;;;;;;;;;;5.70;98.70;;;;;;6128070;23;19931;-87
2022/04/10 00:39:17;;;;;;;;;;;5.60;99.10;;;;;;6125413;23;19921;-85
2022/04/10 00:41:47;;;;;;;;;;;5.50;99.90;;;;;;6100427;23;19944;-85
2022/04/10 00:44:15;;;;;;;;;;;5.50;99.60;;;;;;6102126;23;19921;-87
2022/04/10 00:46:42;;;;;;;;;;;5.40;99.10;;;;;;6126114;23;19925;-85
2022/04/10 00:49:10;;;;;;;;;;;5.40;99.90;;;;;;6101081;23;19921;-86
2022/04/10 00:51:46;;;;;;;;;;;5.00;99.90;;;;;;6130742;23;20597;-85
2022/04/10 00:54:15;;;;;;;;;;;5.30;99.90;;;;;;6105857;23;19925;-86
2022/04/10 00:56:44;;;;;;;;;;;5.20;99.90;;;;;;6133034;23;19921;-86
2022/04/10 00:59:12;;;;;;;;;;;5.30;99.90;;;;;;6101864;23;19921;-85
2022/04/10 01:01:44;;;;;;;;;;;5.20;99.90;;;;;;6102002;23;20245;-86
2022/04/10 01:04:33;;;;;;;;;;;4.70;99.90;;;;;;6077504;23;19936;-85
2022/04/10 01:07:02;;;;;;;;;;;5.10;99.70;;;;;;6129366;23;19932;-86
2022/04/10 01:09:31;;;;;;;;;;;5.10;99.90;;;;;;6100107;23;19932;-87
2022/04/10 01:11:59;;;;;;;;;;;5.10;99.90;;;;;;6125916;23;20327;-86
2022/04/10 01:14:30;;;;;;;;;;;5.10;99.90;;;;;;6101221;23;19962;-86
2022/04/10 01:16:59;;;;;;;;;;;5.00;99.90;;;;;;6126810;23;20334;-86
2022/04/10 01:19:28;;;;;;;;;;;5.00;99.90;;;;;;6103384;23;19931;-85
2022/04/10 01:22:04;;;;;;;;;;;5.00;99.90;;;;;;6079093;23;19959;-84
2022/04/10 01:24:44;;;;;;;;;;;5.00;99.90;;;;;;6078137;23;19924;-86
2022/04/10 01:27:16;;;;;;;;;;;4.90;99.90;;;;;;6105056;23;19924;-85
2022/04/10 01:29:44;;;;;;;;;;;4.90;99.90;;;;;;6118247;23;19921;-86
2022/04/10 01:32:11;;;;;;;;;;;4.90;99.90;;;;;;6139520;23;19928;-86
2022/04/10 01:34:41;;;;;;;;;;;6.00;99.90;;;;;;6139939;23;19935;-86
2022/04/10 01:37:09;;;;;;;;;;;4.90;99.90;;;;;;6114926;23;19929;-85
2022/04/10 01:39:37;;;;;;;;;;;4.90;99.90;;;;;;6107875;23;19925;-86
2022/04/10 01:42:06;;;;;;;;;;;4.80;99.90;;;;;;6108203;23;20226;-85
2022/04/10 01:44:41;;;;;;;;;;;4.80;99.90;;;;;;6110981;23;19931;-85
2022/04/10 01:47:15;;;;;;;;;;;4.80;99.90;;;;;;6117436;23;20395;-85
2022/04/10 01:49:44;;;;;;;;;;;4.70;99.90;;;;;;6109403;23;19917;-86
2022/04/10 01:52:11;;;;;;;;;;;4.70;99.90;;;;;;6106416;23;19925;-86
2022/04/10 01:54:39;;;;;;;;;;;5.30;99.90;;;;;;6080636;23;19925;-84
2022/04/10 01:57:07;;;;;;;;;;;4.80;99.90;;;;;;6103847;23;19928;-84
2022/04/10 01:59:35;;;;;;;;;;;4.50;99.90;;;;;;6079516;23;19920;-85
2022/04/10 02:02:04;;;;;;;;;;;4.60;99.90;;;;;;6103842;23;19927;-85
2022/04/10 02:04:33;;;;;;;;;;;3.90;99.90;;;;;;6054108;23;20360;-84
2022/04/10 02:07:01;;;;;;;;;;;4.50;99.90;;;;;;6106121;23;19921;-85
2022/04/10 02:09:29;;;;;;;;;;;4.60;99.90;;;;;;6128779;23;19921;-85
2022/04/10 02:11:58;;;;;;;;;;;4.50;99.90;;;;;;6102157;23;20253;-85
2022/04/10 02:14:26;;;;;;;;;;;4.50;99.90;;;;;;6104975;23;19921;-86
2022/04/10 02:16:54;;;;;;;;;;;4.50;99.90;;;;;;6127875;23;19928;-86
2022/04/10 02:19:22;;;;;;;;;;;4.40;99.90;;;;;;6102272;23;19932;-85
2022/04/10 02:21:51;;;;;;;;;;;4.40;99.90;;;;;;6127509;23;19927;-86
2022/04/10 02:24:18;;;;;;;;;;;4.40;99.90;;;;;;6105100;23;19921;-85
2022/04/10 02:26:46;;;;;;;;;;;4.40;99.90;;;;;;6101879;23;19928;-85
2022/04/10 02:29:13;;;;;;;;;;;4.40;99.90;;;;;;6130867;23;19921;-85
2022/04/10 02:31:41;;;;;;;;;;;4.30;99.90;;;;;;6131273;23;19928;-86
2022/04/10 02:34:12;;;;;;;;;;;4.30;99.90;;;;;;6102470;23;19939;-84
2022/04/10 02:36:41;;;;;;;;;;;4.20;99.90;;;;;;6128548;23;19936;-85
2022/04/10 02:39:09;;;;;;;;;;;4.20;99.90;;;;;;6127164;23;20265;-84
2022/04/10 02:41:36;;;;;;;;;;;4.10;99.90;;;;;;6079801;23;19936;-85
2022/04/10 02:44:04;;;;;;;;;;;4.00;99.90;;;;;;6104788;23;19925;-85
2022/04/10 02:46:31;;;;;;;;;;;3.90;99.90;;;;;;6103194;23;19997;-84
2022/04/10 02:49:00;;;;;;;;;;;3.50;99.90;;;;;;6078530;23;19928;-85
2022/04/10 02:51:30;;;;;;;;;;;3.80;99.90;;;;;;6126546;23;19921;-85
2022/04/10 02:53:58;;;;;;;;;;;3.80;99.90;;;;;;6104926;23;20281;-86
2022/04/10 02:56:44;;;;;;;;;;;3.70;99.90;;;;;;6131071;23;19936;-86
2022/04/10 02:59:30;;;;;;;;;;;3.70;99.90;;;;;;6115985;23;19928;-85
2022/04/10 03:02:16;;;;;;;;;;;3.70;99.90;;;;;;6136957;23;19944;-85
2022/04/10 03:05:05;;;;;;;;;;;3.60;99.90;;;;;;6135888;23;19931;-86
2022/04/10 03:07:51;;;;;;;;;;;3.60;99.90;;;;;;6116418;23;19928;-85
2022/04/10 03:10:38;;;;;;;;;;;3.90;99.90;;;;;;6137259;23;19928;-86
2022/04/10 03:13:24;;;;;;;;;;;3.60;99.90;;;;;;6137155;23;19928;-86
2022/04/10 03:16:13;;;;;;;;;;;3.50;99.90;;;;;;6135537;23;19932;-85
2022/04/10 03:18:59;;;;;;;;;;;3.40;99.90;;;;;;6115934;23;19936;-85
2022/04/10 03:21:46;;;;;;;;;;;3.50;99.90;;;;;;6116508;23;20404;-85
2022/04/10 03:24:33;;;;;;;;;;;3.50;99.90;;;;;;6115430;23;19927;-84
2022/04/10 03:27:20;;;;;;;;;;;3.40;99.90;;;;;;6114364;23;19943;-85
2022/04/10 03:30:06;;;;;;;;;;;3.40;99.90;;;;;;6135921;23;19927;-86
2022/04/10 03:32:53;;;;;;;;;;;3.40;99.90;;;;;;6129235;23;20024;-85
2022/04/10 03:35:40;;;;;;;;;;;3.40;99.90;;;;;;6103190;23;19978;-86
2022/04/10 03:38:28;;;;;;;;;;;3.40;99.90;;;;;;6116475;23;19956;-85
2022/04/10 03:41:15;;;;;;;;;;;3.40;99.90;;;;;;6115579;23;19932;-85
2022/04/10 03:44:02;;;;;;;;;;;3.30;99.90;;;;;;6116309;23;20012;-85
2022/04/10 03:46:50;;;;;;;;;;;3.30;99.90;;;;;;6134825;23;19986;-85
2022/04/10 03:49:36;;;;;;;;;;;3.50;99.90;;;;;;6094219;23;19928;-85
2022/04/10 03:52:24;;;;;;;;;;;3.30;99.90;;;;;;6135538;23;19932;-85
2022/04/10 03:55:10;;;;;;;;;;;3.20;99.90;;;;;;6115799;23;19932;-85
2022/04/10 03:57:56;;;;;;;;;;;3.20;99.90;;;;;;6136457;23;19928;-85
2022/04/10 04:00:45;;;;;;;;;;;3.20;99.90;;;;;;6115231;23;19928;-85
2022/04/10 04:03:34;;;;;;;;;;;3.20;99.90;;;;;;6131938;23;20249;-84
2022/04/10 04:06:20;;;;;;;;;;;3.20;99.90;;;;;;6116135;23;19932;-84
2022/04/10 04:09:07;;;;;;;;;;;3.10;99.90;;;;;;6115426;23;20254;-85
2022/04/10 04:11:53;;;;;;;;;;;3.00;99.90;;;;;;6114956;23;20210;-86
2022/04/10 04:14:40;;;;;;;;;;;3.00;99.90;;;;;;6136080;23;19935;-85
2022/04/10 04:17:27;;;;;;;;;;;2.80;99.90;;;;;;6115248;23;19928;-85
2022/04/10 04:20:14;;;;;;;;;;;3.00;99.90;;;;;;6115403;23;20246;-85
2022/04/10 04:23:02;;;;;;;;;;;3.00;99.90;;;;;;6127272;23;19932;-86
2022/04/10 04:25:48;;;;;;;;;;;2.90;99.90;;;;;;6136393;23;19928;-86
2022/04/10 04:28:36;;;;;;;;;;;2.90;99.90;;;;;;6137408;23;19936;-85
2022/04/10 04:31:24;;;;;;;;;;;2.80;99.90;;;;;;6115658;23;19931;-85
2022/04/10 04:34:13;;;;;;;;;;;2.80;99.90;;;;;;6110977;23;19928;-85
2022/04/10 04:37:00;;;;;;;;;;;2.80;99.90;;;;;;6114670;23;19928;-85
2022/04/10 04:39:50;;;;;;;;;;;2.70;99.90;;;;;;6136724;23;19936;-87
2022/04/10 04:42:37;;;;;;;;;;;2.70;99.90;;;;;;6136846;23;19928;-85
2022/04/10 04:45:24;;;;;;;;;;;2.70;99.90;;;;;;6116827;23;19967;-86
2022/04/10 04:48:19;;;;;;;;;;;2.60;99.90;;;;;;6136814;23;20224;-85
2022/04/10 04:51:05;;;;;;;;;;;2.70;99.90;;;;;;6117616;23;19967;-84
2022/04/10 04:53:51;;;;;;;;;;;2.60;99.90;;;;;;6137734;23;19932;-85
2022/04/10 04:56:41;;;;;;;;;;;2.60;99.90;;;;;;6139110;23;19932;-88
2022/04/10 04:59:27;;;;;;;;;;;2.80;99.90;;;;;;6139993;23;19927;-85
2022/04/10 05:02:17;;;;;;;;;;;2.70;99.90;;;;;;6117419;23;19931;-84
2022/04/10 05:05:04;;;;;;;;;;;2.50;99.90;;;;;;6116317;23;19931;-87
2022/04/10 05:07:51;;;;;;;;;;;2.40;99.90;;;;;;6118888;23;19947;-85
2022/04/10 05:10:40;;;;;;;;;;;2.40;99.90;;;;;;6142615;23;19928;-86
2022/04/10 05:13:30;;;;;;;;;;;2.30;99.90;;;;;;6126512;23;19915;-86
2022/04/10 05:16:18;;;;;;;;;;;2.30;99.90;;;;;;6126770;23;19943;-85
2022/04/10 05:19:12;;;;;;;;;;;2.30;99.90;;;;;;6126945;23;19928;-87
2022/04/10 05:22:00;;;;;;;;;;;2.30;99.90;;;;;;6148439;23;19931;-84
2022/04/10 05:24:50;;;;;;;;;;;2.20;99.90;;;;;;6154578;23;19924;-86
2022/04/10 05:27:36;;;;;;;;;;;2.20;99.90;;;;;;6139191;23;19929;-87
2022/04/10 05:30:23;;;;;;;;;;;2.20;99.90;;;;;;6123133;23;19931;-87
2022/04/10 05:33:11;;;;;;;;;;;2.20;99.90;;;;;;6124372;23;20545;-88
2022/04/10 05:35:58;;;;;;;;;;;2.20;99.90;;;;;;6112446;23;19972;-86
2022/04/10 05:38:47;;;;;;;;;;;2.20;99.90;;;;;;6093181;23;19931;-87
2022/04/10 05:41:41;;;;;;;;;;;2.30;99.90;;;;;;6093777;23;19927;-86
2022/04/10 05:44:35;;;;;;;;;;;2.30;99.90;;;;;;6114837;23;19924;-89
2022/04/10 05:47:23;;;;;;;;;;;0.90;99.90;;;;;;6096553;23;19932;-88
2022/04/10 05:50:12;;;;;;;;;;;2.20;99.90;;;;;;6110471;23;20112;-88
2022/04/10 05:53:01;;;;;;;;;;;2.30;99.90;;;;;;6098357;23;19931;-85
2022/04/10 05:55:52;;;;;;;;;;;2.30;99.90;;;;;;6087277;23;19927;-85
2022/04/10 05:58:44;;;;;;;;;;;2.30;99.90;;;;;;6094466;23;20488;-86
2022/04/10 06:01:58;;;;;;;;;;;2.40;99.90;;;;;;6098358;23;19932;-86
2022/04/10 06:04:48;;;;;;;;;;;2.40;99.90;;;;;;6099666;23;19932;-86
2022/04/10 06:07:42;;;;;;;;;;;2.50;99.90;;;;;;6123612;23;19932;-86
2022/04/10 06:10:34;;;;;;;;;;;2.50;99.90;;;;;;6097112;23;20141;-85
2022/04/10 06:13:22;;;;;;;;;;;2.60;99.90;;;;;;6093069;23;19998;-86
2022/04/10 06:16:05;;;;;;;;;;;2.10;99.90;;;;;;6057875;23;19929;-85
2022/04/10 06:19:06;;;;;;;;;;;2.80;99.90;;;;;;6078679;23;19925;-86
2022/04/10 06:21:37;;;;;;;;;;;2.90;99.90;;;;;;6103651;23;19922;-85
2022/04/10 06:24:08;;;;;;;;;;;2.90;99.90;;;;;;6079874;23;19925;-85
2022/04/10 06:26:44;;;;;;;;;;;3.00;99.90;;;;;;6077585;23;19921;-84
2022/04/10 06:29:18;;;;;;;;;;;3.10;99.90;;;;;;6058522;23;20293;-86
2022/04/10 06:32:02;;;;;;;;;;;3.20;99.90;;;;;;6082655;23;19921;-85
2022/04/10 06:34:47;;;;;;;;;;;3.20;99.90;;;;;;6082117;23;19935;-85
2022/04/10 06:37:22;;;;;;;;;;;2.30;99.90;;;;;;6106057;23;19925;-86
2022/04/10 06:39:53;;;;;;;;;;;3.50;99.90;;;;;;6104596;23;19928;-84
2022/04/10 06:42:22;;;;;;;;;;;3.60;99.90;;;;;;6101564;23;19932;-85
2022/04/10 06:45:08;;;;;;;;;;;3.70;99.90;;;;;;6078035;23;20253;-86
2022/04/10 06:47:59;;;;;;;;;;;3.80;99.90;;;;;;6102181;23;19925;-85
2022/04/10 06:50:43;;;;;;;;;;;4.00;99.90;;;;;;6056403;23;19921;-85
2022/04/10 06:53:17;;;;;;;;;;;4.10;99.90;;;;;;6078442;23;19928;-85
2022/04/10 06:55:46;;;;;;;;;;;4.20;99.90;;;;;;6105322;23;19931;-86
2022/04/10 06:58:23;;;;;;;;;;;4.20;99.90;;;;;;6103167;23;19921;-86
2022/04/10 07:00:52;;;;;;;;;;;4.40;99.90;;;;;;6102209;23;19929;-84
2022/04/10 07:03:21;;;;;;;;;;;4.40;99.90;;;;;;6073077;23;20348;-82
2022/04/10 07:05:50;;;;;;;;;;;4.60;99.90;;;;;;6107375;23;19968;-84
2022/04/10 07:08:27;;;;;;;;;;;4.70;99.90;;;;;;6056088;23;19925;-85
2022/04/10 07:11:00;;;;;;;;;;;4.80;99.90;;;;;;6053670;23;20152;-84
2022/04/10 07:13:32;;;;;;;;;;;4.00;99.90;;;;;;6105475;23;19921;-84
2022/04/10 07:16:01;;;;;;;;;;;5.00;99.90;;;;;;6079859;23;19925;-84
2022/04/10 07:18:30;;;;;;;;;;;5.10;99.90;;;;;;6080943;23;19935;-86
2022/04/10 07:21:06;;;;;;;;;;;5.20;99.90;;;;;;6103731;23;19932;-87
2022/04/10 07:23:42;;;;;;;;;;;5.30;99.90;;;;;;6077993;23;19925;-86
2022/04/10 07:26:26;;;;;;;;;;;5.40;99.90;;;;;;6056248;23;19921;-86
2022/04/10 07:29:01;;;;;;;;;;;6.80;99.90;;;;;;6083470;23;19935;-84
2022/04/10 07:31:34;;;;;;;;;;;5.20;99.90;;;;;;6085999;23;19932;-85
2022/04/10 07:34:02;;;;;;;;;;;5.70;99.90;;;;;;6083890;23;19925;-85
2022/04/10 07:37:00;;;;;;;;;;;5.80;99.90;;;;;;6123486;23;20117;-86
2022/04/10 07:40:13;;;;;;;;;;;5.90;99.90;;;;;;6108822;23;20249;-86
2022/04/10 07:43:15;;;;;;;;;;;6.10;99.90;;;;;;6133453;23;19931;-85
2022/04/10 07:48:40;;;;;;;;;;;6.30;99.90;;;;;;6130088;23;19925;-85
2022/04/10 07:51:26;;;;;;;;;;;6.40;99.90;;;;;;6106985;23;19924;-85
2022/04/10 07:54:17;;;;;;;;;;;6.80;99.90;;;;;;6107454;23;19925;-88
2022/04/10 07:56:46;;;;;;;;;;;5.80;99.90;;;;;;6105039;23;19925;-85
2022/04/10 07:59:24;;;;;;;;;;;6.80;99.90;;;;;;6107569;23;19920;-85
2022/04/10 08:01:53;;;;;;;;;;;6.90;99.90;;;;;;6129345;23;19921;-85
2022/04/10 08:04:28;;;;;;;;;;;7.00;99.90;;;;;;6059001;23;19921;-87
2022/04/10 08:07:04;;;;;;;;;;;7.10;99.90;;;;;;6132966;23;19943;-84
2022/04/10 08:09:35;;;;;;;;;;;7.20;99.90;;;;;;6107286;23;19932;-88
2022/04/10 08:12:04;;;;;;;;;;;7.30;99.90;;;;;;6106985;23;19921;-85
2022/04/10 08:14:34;;;;;;;;;;;7.40;99.90;;;;;;6108781;23;19927;-86
2022/04/10 08:17:12;;;;;;;;;;;7.50;99.90;;;;;;6112233;23;19928;-85
2022/04/10 08:19:42;;;;;;;;;;;7.60;99.90;;;;;;6137526;23;19925;-85
2022/04/10 08:22:09;;;;;;;;;;;8.10;99.90;;;;;;6108965;23;19931;-86
2022/04/10 08:24:37;;;;;;;;;;;7.90;99.90;;;;;;6132660;23;19943;-86
2022/04/10 08:27:07;;;;;;;;;;;7.90;99.90;;;;;;6132523;23;19921;-86
2022/04/10 08:29:36;;;;;;;;;;;8.10;99.90;;;;;;6108884;23;19924;-86
2022/04/10 08:32:13;;;;;;;;;;;8.20;99.90;;;;;;6105200;23;19925;-86
2022/04/10 08:34:43;;;;;;;;;;;8.30;99.90;;;;;;6127840;23;19921;-86
2022/04/10 08:37:15;;;;;;;;;;;8.40;99.90;;;;;;6131161;23;19921;-85
2022/04/10 08:39:47;;;;;;;;;;;8.60;99.50;;;;;;6105173;23;19931;-85
2022/04/10 08:42:16;;;;;;;;;;;8.70;99.40;;;;;;6107286;23;19928;-87
2022/04/10 08:44:50;;;;;;;;;;;9.00;99.30;;;;;;6133485;23;19931;-89
2022/04/10 08:47:25;;;;;;;;;;;9.00;98.50;;;;;;6148830;23;19925;-86
2022/04/10 08:49:55;;;;;;;;;;;9.30;96.80;;;;;;6138169;23;19928;-88
2022/04/10 08:52:24;;;;;;;;;;;9.20;96.20;;;;;;6113769;23;19931;-86
2022/04/10 08:54:53;;;;;;;;;;;9.50;96.60;;;;;;6143784;23;19925;-86
2022/04/10 08:57:31;;;;;;;;;;;9.30;95.20;;;;;;6136933;23;20094;-85
2022/04/10 09:00:01;;;;;;;;;;;9.40;95.60;;;;;;6117437;23;19929;-85
2022/04/10 09:02:44;;;;;;;;;;;9.60;94.80;;;;;;6141615;23;19924;-87
2022/04/10 09:05:20;;;;;;;;;;;9.60;94.30;;;;;;6131705;23;19921;-85
2022/04/10 09:08:08;;;;;;;;;;;9.70;94.40;;;;;;6082576;23;19927;-84
2022/04/10 09:11:12;;;;;;;;;;;9.90;93.90;;;;;;6083250;23;19927;-86
2022/04/10 09:13:48;;;;;;;;;;;9.80;94.20;;;;;;5963312;24;19966;-86
2022/04/10 09:16:19;;;;;;;;;;;9.90;94.20;;;;;;6115824;23;19921;-84
2022/04/10 09:19:10;;;;;;;;;;;10.40;93.90;;;;;;6104618;23;20274;-85
2022/04/10 09:21:40;;;;;;;;;;;10.10;93.10;;;;;;6104115;23;19921;-87
2022/04/10 09:24:10;;;;;;;;;;;10.10;92.60;;;;;;6130669;23;19928;-90
2022/04/10 09:26:54;;;;;;;;;;;10.20;91.70;;;;;;6131110;23;19935;-87
2022/04/10 09:29:27;;;;;;;;;;;10.30;91.00;;;;;;6130499;23;19924;-88
2022/04/10 09:31:59;;;;;;;;;;;10.30;90.70;;;;;;6106824;23;19935;-87
2022/04/10 09:34:33;;;;;;;;;;;10.40;89.90;;;;;;6132490;23;19925;-87
2022/04/10 09:37:27;;;;;;;;;;;10.40;87.60;;;;;;6103643;23;19925;-85
2022/04/10 09:40:18;;;;;;;;;;;10.50;88.50;;;;;;6110225;23;19925;-86
2022/04/10 09:42:49;;;;;;;;;;;10.60;89.50;;;;;;6104761;23;19925;-86
2022/04/10 09:45:31;;;;;;;;;;;10.70;84.30;;;;;;6088776;23;19925;-87
2022/04/10 09:48:17;;;;;;;;;;;10.70;83.90;;;;;;6103696;23;19925;-86
2022/04/10 09:50:46;;;;;;;;;;;10.80;83.10;;;;;;6127133;23;20254;-86
2022/04/10 09:53:17;;;;;;;;;;;10.80;84.30;;;;;;6105953;23;19921;-86
2022/04/10 09:55:51;;;;;;;;;;;10.80;79.50;;;;;;6128548;23;19928;-86
2022/04/10 09:58:24;;;;;;;;;;;10.90;83.50;;;;;;6106615;23;19921;-84
2022/04/10 10:01:02;;;;;;;;;;;11.00;82.30;;;;;;6108274;23;19921;-85
2022/04/10 10:03:36;;;;;;;;;;;11.10;81.60;;;;;;6136996;23;19921;-86
2022/04/10 10:06:35;;;;;;;;;;;10.70;81.30;;;;;;6114548;23;19925;-86
2022/04/10 10:09:11;;;;;;;;;;;11.20;83.80;;;;;;6116880;23;19931;-88
2022/04/10 10:11:44;;;;;;;;;;;11.80;83.60;;;;;;6138058;23;19921;-87
2022/04/10 10:14:31;;;;;;;;;;;11.50;83.30;;;;;;6114626;23;19929;-86
2022/04/10 10:17:06;;;;;;;;;;;11.60;84.10;;;;;;6120031;23;19944;-87
2022/04/10 10:19:35;;;;;;;;;;;11.60;82.90;;;;;;6142568;23;19935;-86
2022/04/10 10:22:11;;;;;;;;;;;11.60;81.90;;;;;;6112988;23;19932;-87
2022/04/10 10:24:47;;;;;;;;;;;11.70;81.30;;;;;;6109573;23;19921;-87
2022/04/10 10:27:19;;;;;;;;;;;11.70;80.40;;;;;;6090451;23;19921;-88
2022/04/10 10:30:13;;;;;;;;;;;11.70;80.00;;;;;;6139281;23;19921;-88
2022/04/10 10:33:09;;;;;;;;;;;11.70;78.00;;;;;;6115714;23;19924;-87
2022/04/10 10:35:42;;;;;;;;;;;11.70;76.40;;;;;;6111823;23;19928;-85
2022/04/10 10:38:26;;;;;;;;;;;11.70;77.60;;;;;;6129409;23;19927;-86
2022/04/10 10:41:18;;;;;;;;;;;11.90;76.80;;;;;;6136937;23;20353;-89
2022/04/10 10:44:22;;;;;;;;;;;11.90;75.50;;;;;;6110412;23;19921;-87
2022/04/10 10:47:00;;;;;;;;;;;12.30;77.80;;;;;;6116907;23;19932;-87
2022/04/10 10:49:31;;;;;;;;;;;12.10;78.10;;;;;;6137734;23;19925;-86
2022/04/10 10:52:14;;;;;;;;;;;12.20;78.90;;;;;;6113239;23;19931;-86
2022/04/10 10:54:54;;;;;;;;;;;11.50;77.20;;;;;;6118801;23;19921;-85
2022/04/10 10:57:42;;;;;;;;;;;12.50;77.40;;;;;;6118451;23;19924;-87
2022/04/10 11:00:16;;;;;;;;;;;12.40;78.60;;;;;;6125021;23;19935;-87
2022/04/10 11:02:51;;;;;;;;;;;12.60;77.60;;;;;;6145275;23;19909;-87
2022/04/10 11:05:25;;;;;;;;;;;12.70;76.10;;;;;;6123727;23;19916;-88
2022/04/10 11:08:05;;;;;;;;;;;12.80;75.70;;;;;;6146782;23;19921;-87
2022/04/10 11:10:36;;;;;;;;;;;13.00;75.90;;;;;;6069254;23;19927;-88
2022/04/10 11:13:16;;;;;;;;;;;12.90;76.40;;;;;;6143042;23;20637;-84
2022/04/10 11:15:47;;;;;;;;;;;13.10;75.40;;;;;;6142051;23;19927;-86
2022/04/10 11:18:23;;;;;;;;;;;13.80;76.40;;;;;;6148936;23;19931;-86
2022/04/10 11:21:15;;;;;;;;;;;13.30;77.10;;;;;;6118054;23;19944;-87
2022/04/10 11:24:00;;;;;;;;;;;13.40;76.70;;;;;;6113357;23;19921;-86
2022/04/10 11:26:43;;;;;;;;;;;13.50;76.90;;;;;;6144877;23;19935;-87
2022/04/10 11:29:15;;;;;;;;;;;13.60;75.60;;;;;;6112505;23;19925;-86
2022/04/10 11:31:50;;;;;;;;;;;13.70;76.30;;;;;;6142788;23;19931;-88
2022/04/10 11:34:35;;;;;;;;;;;13.70;75.70;;;;;;6138745;23;19919;-88
2022/04/10 11:37:03;;;;;;;;;;;13.80;75.40;;;;;;6113067;23;19925;-89
2022/04/10 11:39:39;;;;;;;;;;;13.90;72.90;;;;;;6106724;23;19921;-88
2022/04/10 11:42:22;;;;;;;;;;;13.80;72.80;;;;;;6084229;23;19921;-88
2022/04/10 11:44:52;;;;;;;;;;;13.90;72.80;;;;;;6084323;23;20126;-88
2022/04/10 11:47:32;;;;;;;;;;;13.70;71.60;;;;;;6107475;23;19924;-88
2022/04/10 11:50:02;;;;;;;;;;;13.60;72.20;;;;;;6106411;23;20234;-86
2022/04/10 11:52:37;;;;;;;;;;;13.70;72.10;;;;;;6084066;23;19924;-89
2022/04/10 11:55:11;;;;;;;;;;;13.80;72.90;;;;;;6110000;23;19940;-87
2022/04/10 11:57:40;;;;;;;;;;;14.00;72.90;;;;;;6098683;23;19924;-86
2022/04/10 12:00:10;;;;;;;;;;;14.20;73.60;;;;;;6135077;23;20379;-85
2022/04/10 12:02:42;;;;;;;;;;;14.30;71.10;;;;;;6132830;23;19931;-88
2022/04/10 12:05:12;;;;;;;;;;;14.40;71.90;;;;;;6134635;23;20395;-86
2022/04/10 12:07:48;;;;;;;;;;;14.60;73.40;;;;;;6109203;23;20345;-87
2022/04/10 12:10:29;;;;;;;;;;;14.70;72.40;;;;;;6135585;23;19925;-89
2022/04/10 12:13:05;;;;;;;;;;;14.10;71.70;;;;;;6086196;23;19920;-87
2022/04/10 12:15:37;;;;;;;;;;;14.80;72.50;;;;;;6136851;23;19927;-86
2022/04/10 12:18:13;;;;;;;;;;;14.90;70.90;;;;;;6087557;23;20244;-89
2022/04/10 12:21:04;;;;;;;;;;;14.90;72.80;;;;;;6138942;23;19935;-88
2022/04/10 12:23:59;;;;;;;;;;;14.90;74.10;;;;;;6134730;23;19924;-87
2022/04/10 12:26:28;;;;;;;;;;;14.80;74.40;;;;;;6112387;23;19935;-78
2022/04/10 12:28:56;;;;;;;;;;;14.70;74.00;;;;;;6109296;23;20263;-78
2022/04/10 12:31:25;;;;;;;;;;;14.50;75.80;;;;;;6088657;23;19932;-79
2022/04/10 12:34:19;;;;;;;;;;;14.40;75.80;;;;;;6082404;23;19928;-79
2022/04/10 12:36:49;;;;;;;;;;;14.40;75.70;;;;;;6116489;23;19921;-81
2022/04/10 12:39:42;;;;;;;;;;;14.20;76.90;;;;;;6078873;23;20210;-81
2022/04/10 12:42:13;;;;;;;;;;;14.20;77.20;;;;;;6056217;23;19921;-82
2022/04/10 12:44:41;;;;;;;;;;;14.40;76.60;;;;;;6056950;23;19935;-79
2022/04/10 12:47:10;;;;;;;;;;;14.60;76.80;;;;;;6080321;23;19921;-79
2022/04/10 12:49:41;;;;;;;;;;;14.80;76.10;;;;;;6032234;23;19969;-79
2022/04/10 12:52:17;;;;;;;;;;;15.00;76.70;;;;;;6081386;23;20546;-78
2022/04/10 12:54:47;;;;;;;;;;;15.20;76.70;;;;;;6055168;23;20252;-80
2022/04/10 12:57:44;;;;;;;;;;;15.30;73.90;;;;;;6029787;23;19921;-79
2022/04/10 13:00:46;;;;;;;;;;;15.20;73.20;;;;;;6065817;23;20264;-79
2022/04/10 13:03:21;;;;;;;;;;;15.20;72.70;;;;;;6005833;23;19921;-83
2022/04/10 13:05:57;;;;;;;;;;;15.30;74.80;;;;;;6085268;23;19921;-79
2022/04/10 13:08:30;;;;;;;;;;;15.40;74.30;;;;;;6052423;23;19926;-78
2022/04/10 13:10:58;;;;;;;;;;;15.50;74.80;;;;;;6053606;23;19932;-80
2022/04/10 13:14:00;;;;;;;;;;;15.50;73.70;;;;;;6051937;23;19926;-80
2022/04/10 13:16:31;;;;;;;;;;;14.90;72.70;;;;;;6078597;23;19925;-79
2022/04/10 13:19:01;;;;;;;;;;;15.40;74.60;;;;;;6037376;23;20123;-79
2022/04/10 13:21:29;;;;;;;;;;;15.10;74.80;;;;;;6074825;23;19940;-79
2022/04/10 13:23:57;;;;;;;;;;;15.10;75.70;;;;;;6055860;23;19922;-80
2022/04/10 13:26:26;;;;;;;;;;;13.50;75.30;;;;;;6080961;23;19921;-80
2022/04/10 13:28:54;;;;;;;;;;;15.10;75.70;;;;;;6081267;23;19931;-80
2022/04/10 13:31:22;;;;;;;;;;;15.00;76.60;;;;;;6090557;23;19921;-84
2022/04/10 13:33:50;;;;;;;;;;;15.00;76.30;;;;;;6117249;23;19922;-82
2022/04/10 13:36:20;;;;;;;;;;;15.00;76.90;;;;;;6108082;23;19925;-81
2022/04/10 13:38:50;;;;;;;;;;;15.00;77.00;;;;;;6064388;23;19925;-83
2022/04/10 13:41:18;;;;;;;;;;;15.00;76.80;;;;;;6117029;23;19955;-81
2022/04/10 13:43:46;;;;;;;;;;;15.20;76.20;;;;;;6092582;23;19932;-83
2022/04/10 13:46:16;;;;;;;;;;;15.10;77.30;;;;;;6120785;23;19921;-82
2022/04/10 13:48:45;;;;;;;;;;;15.10;77.50;;;;;;6117767;23;19921;-82
2022/04/10 13:51:13;;;;;;;;;;;14.90;77.00;;;;;;6108604;23;19921;-80
2022/04/10 13:53:41;;;;;;;;;;;15.00;77.00;;;;;;6109065;23;19917;-80
2022/04/10 13:56:11;;;;;;;;;;;15.20;76.80;;;;;;6117806;23;19925;-80
2022/04/10 13:58:38;;;;;;;;;;;15.40;76.20;;;;;;6081409;23;20251;-80
2022/04/10 14:01:07;;;;;;;;;;;15.20;76.10;;;;;;6106761;23;19925;-80
2022/04/10 14:03:35;;;;;;;;;;;15.30;76.10;;;;;;6116872;23;19931;-80
2022/04/10 14:06:03;;;;;;;;;;;15.60;76.60;;;;;;6081172;23;19921;-80
2022/04/10 14:08:31;;;;;;;;;;;16.30;75.40;;;;;;6091253;23;19967;-83
2022/04/10 14:11:20;;;;;;;;;;;16.20;76.50;;;;;;6058314;23;19925;-81
2022/04/10 14:13:48;;;;;;;;;;;16.50;74.50;;;;;;6092764;23;19948;-81
2022/04/10 14:16:16;;;;;;;;;;;16.70;74.90;;;;;;6083149;23;19925;-84
2022/04/10 14:18:44;;;;;;;;;;;17.00;74.80;;;;;;6108957;23;19935;-79
2022/04/10 14:21:13;;;;;;;;;;;17.20;73.40;;;;;;6083637;23;19925;-81
2022/04/10 14:23:41;;;;;;;;;;;17.30;72.90;;;;;;6115855;23;19965;-81
2022/04/10 14:26:09;;;;;;;;;;;17.50;73.80;;;;;;6109336;23;19925;-82
2022/04/10 14:28:38;;;;;;;;;;;17.40;72.10;;;;;;6119241;23;19927;-81
2022/04/10 14:31:07;;;;;;;;;;;17.20;71.50;;;;;;6107643;23;19925;-82
2022/04/10 14:33:36;;;;;;;;;;;17.00;71.10;;;;;;6119645;23;19921;-81
2022/04/10 14:36:04;;;;;;;;;;;16.80;71.00;;;;;;6085387;23;19936;-82
2022/04/10 14:38:32;;;;;;;;;;;16.80;71.90;;;;;;6095393;23;19966;-80
2022/04/10 14:41:02;;;;;;;;;;;16.80;71.50;;;;;;6093501;23;19921;-80
2022/04/10 14:43:30;;;;;;;;;;;16.90;71.10;;;;;;6108954;23;19928;-79
2022/04/10 14:45:59;;;;;;;;;;;17.00;71.80;;;;;;6109805;23;19928;-80
2022/04/10 14:48:27;;;;;;;;;;;17.20;71.30;;;;;;6117073;23;19921;-80
2022/04/10 14:50:55;;;;;;;;;;;17.60;70.70;;;;;;6092327;23;19922;-80
2022/04/10 14:53:23;;;;;;;;;;;17.80;70.50;;;;;;6037109;23;19922;-80
2022/04/10 14:55:51;;;;;;;;;;;18.20;71.00;;;;;;6120102;23;19939;-81
2022/04/10 14:58:19;;;;;;;;;;;18.40;69.40;;;;;;6095315;23;19940;-83
2022/04/10 15:00:47;;;;;;;;;;;18.40;68.80;;;;;;6118470;23;20335;-80
2022/04/10 15:03:18;;;;;;;;;;;18.60;68.90;;;;;;6110505;23;19979;-80
2022/04/10 15:05:46;;;;;;;;;;;18.70;66.90;;;;;;6082316;23;19932;-81
2022/04/10 15:08:14;;;;;;;;;;;18.70;67.50;;;;;;6093260;23;19925;-82
2022/04/10 15:10:45;;;;;;;;;;;18.70;66.60;;;;;;6081530;23;19925;-81
2022/04/10 15:13:26;;;;;;;;;;;18.70;67.80;;;;;;6083706;23;19925;-81
2022/04/10 15:15:54;;;;;;;;;;;19.00;67.30;;;;;;6081919;23;19932;-83
2022/04/10 15:18:22;;;;;;;;;;;19.00;66.80;;;;;;6119086;23;19966;-81
2022/04/10 15:20:51;;;;;;;;;;;19.10;67.30;;;;;;6116208;23;19932;-81
2022/04/10 15:23:20;;;;;;;;;;;18.80;64.80;;;;;;6084189;23;20198;-82